Etusivu
METAR-TAF:

METAR-TAF

Lentoasemat :

Kristiansandin lentoasema

Kristiansand, Norja

Leveyspiiri: 58-12N, Pituuspiiri: 008-05E, korkeus merenpinnasta: 1 m

Tämänhetkinen sää

Tämä raportti tehtiin 30 minuuttia sitten, kello 19.20 UTC
Tuuli 8 kn koillisesta
Lämpötila 9°C
Kosteus 100%
Ilmanpaine 1011 hPa
Näkyvyys: 8000 m
Hajanaisia pilviä 2900 ft:n korkeudessa
Hajonneita pilviä 5100 ft:n korkeudessa
heikkoa sadetta

METAR: ENCN 241920Z 04008KT 8000 -RA SCT029 BKN051 09/09 Q1011

Aika: 21:50 (19:50 UTC)

Sääennuste

Tämä raportti tehtiin 2 tuntia ja 50 minuuttia sitten, kello 17.00 UTC
Ennuste voimassa 24. päivästä klo 18 UTC - 24. päivään klo 21 UTC
Tuuli 8 kn koillisesta
Näkyvyys 10 km tai enemmän
Muutamia pilviä 3000 ft:n korkeudessa
Hajonneita pilviä 5000 ft:n korkeudessa
heikkoa sadetta

TAF: ENCN 241700Z 2418/2421 05008KT 9999 -RA FEW030 BKN050

Säähavainnot ja -ennusteet yli 4000 lentoasemalta (METAR- ja TAF-raportit).

Käytössä olevat sääasemat on merkitty karttaan keltaisilla ja punaisilla pisteillä.

Aseta hiiri pisteen päälle nähdäksesi sääaseman nimen.

Klikkaa sitten nähdäksesi säähavainnot ja -ennusteet.

Kartan vaihtaminen: klikkaa mustalla rastilla varustettuja vihreitä pisteitä, niin voit zoomata sisään; viivalla varustettua vihreää pistettä, niin voit zoomata ulos tai vihreitä nuolia, niin pääset viereisille kartoille.


METAR-TAF: